Terminal Aerodrome Forecast
Issued by NWS Austin/San Antonio, TX

Home | Current Version | Previous Version | Text Only | Print | Product List | Glossary On
Versions: 1 2 3 4 5 6 7 8 9 10 11 12 13 14 15 16 17 18 19 20 21 22 23 24 25 26 27 28 29 30 31 32 33 34 35 36 37 38 39
478
FTUS44 KEWX 241132
TAFSAT
TAF
KSAT 241132Z 2412/2518 15010KT P6SM OVC007
     FM241500 15010KT P6SM OVC015
     FM241900 14012KT P6SM BKN035
     FM250300 14010KT P6SM BKN015
     FM250900 14010KT P6SM BKN007=

USA.gov is the U.S. government's official web portal to all federal, state and local government web resources and services.